sensor_id;sensor_type;location;lat;lon;timestamp;pressure;altitude;pressure_sealevel;temperature;humidity
12759;BME280;20944;47.048;15.390;2023-07-28T00:00:11;97064.47;;;18.28;90.96
12759;BME280;20944;47.048;15.390;2023-07-28T00:02:40;96993.34;;;17.82;90.22
12759;BME280;20944;47.048;15.390;2023-07-28T00:05:09;97075.94;;;18.28;89.74
12759;BME280;20944;47.048;15.390;2023-07-28T00:07:37;97076.34;;;18.22;89.34
12759;BME280;20944;47.048;15.390;2023-07-28T00:10:06;97068.16;;;18.13;91.03
12759;BME280;20944;47.048;15.390;2023-07-28T00:12:34;97034.63;;;17.99;91.18
12759;BME280;20944;47.048;15.390;2023-07-28T00:15:03;97007.13;;;17.87;91.29
12759;BME280;20944;47.048;15.390;2023-07-28T00:17:32;97021.81;;;18.05;89.94
12759;BME280;20944;47.048;15.390;2023-07-28T00:20:02;96939.28;;;17.45;88.85
12759;BME280;20944;47.048;15.390;2023-07-28T00:22:30;97057.66;;;18.11;89.18
12759;BME280;20944;47.048;15.390;2023-07-28T00:24:58;97053.28;;;18.10;89.88
12759;BME280;20944;47.048;15.390;2023-07-28T00:27:27;96987.44;;;17.64;90.34
12759;BME280;20944;47.048;15.390;2023-07-28T00:29:55;97046.66;;;18.17;89.49
12759;BME280;20944;47.048;15.390;2023-07-28T00:32:23;97021.69;;;18.07;90.35
12759;BME280;20944;47.048;15.390;2023-07-28T00:34:52;97037.53;;;18.34;91.30
12759;BME280;20944;47.048;15.390;2023-07-28T00:37:21;97038.59;;;18.31;91.77
12759;BME280;20944;47.048;15.390;2023-07-28T00:39:49;97033.19;;;18.33;93.63
12759;BME280;20944;47.048;15.390;2023-07-28T00:42:18;97040.09;;;18.36;92.26
12759;BME280;20944;47.048;15.390;2023-07-28T00:44:46;97020.75;;;18.21;91.44
12759;BME280;20944;47.048;15.390;2023-07-28T00:47:15;97036.13;;;18.16;92.79
12759;BME280;20944;47.048;15.390;2023-07-28T00:49:43;97039.19;;;18.10;93.23
12759;BME280;20944;47.048;15.390;2023-07-28T00:52:12;96969.66;;;17.66;93.47
12759;BME280;20944;47.048;15.390;2023-07-28T00:54:41;97040.47;;;18.04;92.73
12759;BME280;20944;47.048;15.390;2023-07-28T00:57:10;96856.03;;;16.82;93.94
12759;BME280;20944;47.048;15.390;2023-07-28T00:59:38;97036.84;;;17.92;96.12
12759;BME280;20944;47.048;15.390;2023-07-28T01:02:06;97037.88;;;17.90;96.52
12759;BME280;20944;47.048;15.390;2023-07-28T01:04:35;97030.47;;;17.95;95.36
12759;BME280;20944;47.048;15.390;2023-07-28T01:07:09;96996.84;;;17.83;96.37
12759;BME280;20944;47.048;15.390;2023-07-28T01:09:54;97028.69;;;18.08;96.21
12759;BME280;20944;47.048;15.390;2023-07-28T01:12:25;97015.97;;;18.00;95.22
12759;BME280;20944;47.048;15.390;2023-07-28T01:14:53;96997.81;;;17.94;93.13
12759;BME280;20944;47.048;15.390;2023-07-28T01:17:21;96989.63;;;17.85;94.55
12759;BME280;20944;47.048;15.390;2023-07-28T01:19:51;97032.63;;;18.15;94.53
12759;BME280;20944;47.048;15.390;2023-07-28T01:22:43;97030.38;;;18.09;95.89
12759;BME280;20944;47.048;15.390;2023-07-28T01:25:19;97034.09;;;17.94;97.07
12759;BME280;20944;47.048;15.390;2023-07-28T01:27:52;97015.31;;;17.70;99.01
12759;BME280;20944;47.048;15.390;2023-07-28T01:30:21;97031.91;;;17.73;100.00
12759;BME280;20944;47.048;15.390;2023-07-28T01:32:54;97000.91;;;17.61;99.87
12759;BME280;20944;47.048;15.390;2023-07-28T01:35:23;97032.25;;;17.82;100.00
12759;BME280;20944;47.048;15.390;2023-07-28T01:37:51;97036.41;;;17.86;100.00
12759;BME280;20944;47.048;15.390;2023-07-28T01:40:20;96988.78;;;17.57;100.00
12759;BME280;20944;47.048;15.390;2023-07-28T01:42:48;97007.47;;;17.68;99.89
12759;BME280;20944;47.048;15.390;2023-07-28T01:45:18;97014.03;;;17.63;99.17
12759;BME280;20944;47.048;15.390;2023-07-28T01:47:47;97029.72;;;17.66;100.00
12759;BME280;20944;47.048;15.390;2023-07-28T01:50:15;96971.22;;;17.29;100.00
12759;BME280;20944;47.048;15.390;2023-07-28T01:52:43;97017.81;;;17.59;100.00
12759;BME280;20944;47.048;15.390;2023-07-28T01:55:11;97016.56;;;17.64;100.00
12759;BME280;20944;47.048;15.390;2023-07-28T01:57:40;97013.19;;;17.62;100.00
12759;BME280;20944;47.048;15.390;2023-07-28T02:00:19;97017.25;;;17.68;100.00
12759;BME280;20944;47.048;15.390;2023-07-28T02:02:48;97016.13;;;17.58;100.00
12759;BME280;20944;47.048;15.390;2023-07-28T02:05:16;96996.69;;;17.17;100.00
12759;BME280;20944;47.048;15.390;2023-07-28T02:07:45;96858.13;;;16.22;100.00
12759;BME280;20944;47.048;15.390;2023-07-28T02:10:13;97033.50;;;17.49;100.00
12759;BME280;20944;47.048;15.390;2023-07-28T02:12:42;97020.28;;;17.35;100.00
12759;BME280;20944;47.048;15.390;2023-07-28T02:15:11;97001.69;;;17.22;100.00
12759;BME280;20944;47.048;15.390;2023-07-28T02:17:41;97012.75;;;17.14;100.00
12759;BME280;20944;47.048;15.390;2023-07-28T02:20:09;96979.69;;;17.07;100.00
12759;BME280;20944;47.048;15.390;2023-07-28T02:22:40;96999.53;;;17.14;100.00
12759;BME280;20944;47.048;15.390;2023-07-28T02:25:08;97004.53;;;17.19;100.00
12759;BME280;20944;47.048;15.390;2023-07-28T02:27:37;97017.28;;;17.26;100.00
12759;BME280;20944;47.048;15.390;2023-07-28T02:30:06;96995.19;;;17.13;100.00
12759;BME280;20944;47.048;15.390;2023-07-28T02:32:36;97008.59;;;17.24;100.00
12759;BME280;20944;47.048;15.390;2023-07-28T02:35:07;97004.66;;;17.17;100.00
12759;BME280;20944;47.048;15.390;2023-07-28T02:37:35;97011.06;;;17.13;100.00
12759;BME280;20944;47.048;15.390;2023-07-28T02:40:04;97020.72;;;17.14;100.00
12759;BME280;20944;47.048;15.390;2023-07-28T02:42:33;97020.66;;;17.02;100.00
12759;BME280;20944;47.048;15.390;2023-07-28T02:45:02;97004.34;;;16.81;100.00
12759;BME280;20944;47.048;15.390;2023-07-28T02:47:30;97024.06;;;17.04;100.00
12759;BME280;20944;47.048;15.390;2023-07-28T02:49:59;97017.34;;;16.98;100.00
12759;BME280;20944;47.048;15.390;2023-07-28T02:52:28;97017.75;;;16.92;100.00
12759;BME280;20944;47.048;15.390;2023-07-28T02:54:57;97022.09;;;16.93;100.00
12759;BME280;20944;47.048;15.390;2023-07-28T02:57:25;97006.97;;;16.81;100.00
12759;BME280;20944;47.048;15.390;2023-07-28T02:59:53;97020.75;;;17.00;100.00
12759;BME280;20944;47.048;15.390;2023-07-28T03:02:22;96989.97;;;16.70;100.00
12759;BME280;20944;47.048;15.390;2023-07-28T03:04:50;97020.56;;;16.89;100.00
12759;BME280;20944;47.048;15.390;2023-07-28T03:07:18;97025.97;;;16.87;100.00
12759;BME280;20944;47.048;15.390;2023-07-28T03:09:48;96982.03;;;16.56;100.00
12759;BME280;20944;47.048;15.390;2023-07-28T03:12:16;97022.38;;;16.74;100.00
12759;BME280;20944;47.048;15.390;2023-07-28T03:14:44;97025.94;;;16.59;100.00
12759;BME280;20944;47.048;15.390;2023-07-28T03:17:13;97005.34;;;16.64;100.00
12759;BME280;20944;47.048;15.390;2023-07-28T03:19:41;97022.13;;;16.79;100.00
12759;BME280;20944;47.048;15.390;2023-07-28T03:22:09;97021.22;;;16.64;100.00
12759;BME280;20944;47.048;15.390;2023-07-28T03:24:38;97018.84;;;16.59;100.00
12759;BME280;20944;47.048;15.390;2023-07-28T03:27:07;96967.28;;;16.24;100.00
12759;BME280;20944;47.048;15.390;2023-07-28T03:29:36;96957.25;;;16.14;100.00
12759;BME280;20944;47.048;15.390;2023-07-28T03:32:05;96989.19;;;16.40;100.00
12759;BME280;20944;47.048;15.390;2023-07-28T03:34:33;97016.88;;;16.49;100.00
12759;BME280;20944;47.048;15.390;2023-07-28T03:37:01;97015.56;;;16.41;100.00
12759;BME280;20944;47.048;15.390;2023-07-28T03:39:30;96905.16;;;15.74;100.00
12759;BME280;20944;47.048;15.390;2023-07-28T03:41:58;97015.72;;;16.38;100.00
12759;BME280;20944;47.048;15.390;2023-07-28T03:44:28;97014.31;;;16.33;100.00
12759;BME280;20944;47.048;15.390;2023-07-28T03:46:56;97015.94;;;16.35;100.00
12759;BME280;20944;47.048;15.390;2023-07-28T03:49:25;97028.84;;;16.40;100.00
12759;BME280;20944;47.048;15.390;2023-07-28T03:51:53;96947.63;;;15.85;100.00
12759;BME280;20944;47.048;15.390;2023-07-28T03:54:21;96952.72;;;15.88;100.00
12759;BME280;20944;47.048;15.390;2023-07-28T03:56:49;97020.75;;;16.29;100.00
12759;BME280;20944;47.048;15.390;2023-07-28T03:59:17;97023.19;;;16.32;100.00
12759;BME280;20944;47.048;15.390;2023-07-28T04:01:47;96991.03;;;15.95;100.00
12759;BME280;20944;47.048;15.390;2023-07-28T04:04:15;97024.69;;;16.22;100.00
12759;BME280;20944;47.048;15.390;2023-07-28T04:06:45;97029.22;;;16.19;100.00
12759;BME280;20944;47.048;15.390;2023-07-28T04:09:14;97025.72;;;16.19;100.00
12759;BME280;20944;47.048;15.390;2023-07-28T04:11:43;97003.41;;;16.09;100.00
12759;BME280;20944;47.048;15.390;2023-07-28T04:14:11;97029.06;;;16.37;100.00
12759;BME280;20944;47.048;15.390;2023-07-28T04:16:41;97006.31;;;16.34;100.00
12759;BME280;20944;47.048;15.390;2023-07-28T04:19:10;97027.00;;;16.56;100.00
12759;BME280;20944;47.048;15.390;2023-07-28T04:21:39;97011.97;;;16.57;100.00
12759;BME280;20944;47.048;15.390;2023-07-28T04:24:08;97030.50;;;16.71;100.00
12759;BME280;20944;47.048;15.390;2023-07-28T04:26:36;97031.66;;;16.81;100.00
12759;BME280;20944;47.048;15.390;2023-07-28T04:29:05;96957.84;;;16.48;100.00
12759;BME280;20944;47.048;15.390;2023-07-28T04:31:33;97024.72;;;16.93;100.00
12759;BME280;20944;47.048;15.390;2023-07-28T04:34:02;96997.72;;;16.74;100.00
12759;BME280;20944;47.048;15.390;2023-07-28T04:36:32;97017.81;;;16.90;100.00
12759;BME280;20944;47.048;15.390;2023-07-28T04:39:01;97038.41;;;17.14;100.00
12759;BME280;20944;47.048;15.390;2023-07-28T04:41:29;97035.91;;;17.25;100.00
12759;BME280;20944;47.048;15.390;2023-07-28T04:43:57;97040.63;;;17.34;100.00
12759;BME280;20944;47.048;15.390;2023-07-28T04:46:26;97045.06;;;17.34;100.00
12759;BME280;20944;47.048;15.390;2023-07-28T04:48:54;96974.78;;;17.01;99.78
12759;BME280;20944;47.048;15.390;2023-07-28T04:51:23;97040.78;;;17.45;99.75
12759;BME280;20944;47.048;15.390;2023-07-28T04:53:52;97022.28;;;17.31;98.92
12759;BME280;20944;47.048;15.390;2023-07-28T04:56:21;97010.63;;;17.34;98.34
12759;BME280;20944;47.048;15.390;2023-07-28T04:58:49;97042.31;;;17.76;97.76
12759;BME280;20944;47.048;15.390;2023-07-28T05:01:17;97024.44;;;17.93;95.74
12759;BME280;20944;47.048;15.390;2023-07-28T05:03:46;97043.59;;;18.23;94.96
12759;BME280;20944;47.048;15.390;2023-07-28T05:06:14;97035.72;;;18.47;93.35
12759;BME280;20944;47.048;15.390;2023-07-28T05:08:42;97012.50;;;18.51;91.40
12759;BME280;20944;47.048;15.390;2023-07-28T05:11:12;97037.53;;;18.85;90.71
12759;BME280;20944;47.048;15.390;2023-07-28T05:13:40;97041.91;;;18.99;89.76
12759;BME280;20944;47.048;15.390;2023-07-28T05:16:08;97035.72;;;19.11;89.16
12759;BME280;20944;47.048;15.390;2023-07-28T05:18:37;97040.06;;;19.12;88.25
12759;BME280;20944;47.048;15.390;2023-07-28T05:21:05;97033.53;;;19.16;88.59
12759;BME280;20944;47.048;15.390;2023-07-28T05:23:33;97041.31;;;19.19;87.94
12759;BME280;20944;47.048;15.390;2023-07-28T05:26:02;97032.66;;;19.28;87.58
12759;BME280;20944;47.048;15.390;2023-07-28T05:28:34;96964.38;;;18.94;86.71
12759;BME280;20944;47.048;15.390;2023-07-28T05:31:06;97025.72;;;19.38;85.48
12759;BME280;20944;47.048;15.390;2023-07-28T05:33:34;97042.06;;;19.58;84.78
12759;BME280;20944;47.048;15.390;2023-07-28T05:36:03;97041.78;;;19.74;84.33
12759;BME280;20944;47.048;15.390;2023-07-28T05:38:32;97031.34;;;19.94;83.80
12759;BME280;20944;47.048;15.390;2023-07-28T05:41:02;97029.13;;;20.12;82.36
12759;BME280;20944;47.048;15.390;2023-07-28T05:43:32;97026.75;;;20.32;81.67
12759;BME280;20944;47.048;15.390;2023-07-28T05:46:01;97018.16;;;20.39;80.99
12759;BME280;20944;47.048;15.390;2023-07-28T05:48:29;97035.28;;;20.59;80.33
12759;BME280;20944;47.048;15.390;2023-07-28T05:50:58;97031.91;;;20.68;78.82
12759;BME280;20944;47.048;15.390;2023-07-28T05:53:26;97021.00;;;20.71;78.18
12759;BME280;20944;47.048;15.390;2023-07-28T05:55:54;97027.19;;;20.83;78.03
12759;BME280;20944;47.048;15.390;2023-07-28T05:58:23;97018.59;;;20.91;77.43
12759;BME280;20944;47.048;15.390;2023-07-28T06:00:52;97028.75;;;21.08;78.43
12759;BME280;20944;47.048;15.390;2023-07-28T06:03:21;97027.78;;;21.20;77.09
12759;BME280;20944;47.048;15.390;2023-07-28T06:05:50;97018.19;;;21.40;75.63
12759;BME280;20944;47.048;15.390;2023-07-28T06:08:18;97016.16;;;21.44;74.81
12759;BME280;20944;47.048;15.390;2023-07-28T06:10:46;97020.31;;;21.69;74.26
12759;BME280;20944;47.048;15.390;2023-07-28T06:13:15;97016.50;;;21.83;72.85
12759;BME280;20944;47.048;15.390;2023-07-28T06:15:43;97028.81;;;21.95;73.25
12759;BME280;20944;47.048;15.390;2023-07-28T06:18:13;97023.34;;;21.96;73.24
12759;BME280;20944;47.048;15.390;2023-07-28T06:20:42;97036.94;;;21.93;73.86
12759;BME280;20944;47.048;15.390;2023-07-28T06:23:11;97030.13;;;22.00;74.31
12759;BME280;20944;47.048;15.390;2023-07-28T06:25:39;97036.03;;;22.15;72.05
12759;BME280;20944;47.048;15.390;2023-07-28T06:28:11;97040.16;;;22.19;71.62
12759;BME280;20944;47.048;15.390;2023-07-28T06:30:39;97039.91;;;22.11;70.43
12759;BME280;20944;47.048;15.390;2023-07-28T06:33:08;96982.38;;;21.65;71.70
12759;BME280;20944;47.048;15.390;2023-07-28T06:35:39;97050.28;;;21.93;73.67
12759;BME280;20944;47.048;15.390;2023-07-28T06:38:07;97042.06;;;21.85;73.04
12759;BME280;20944;47.048;15.390;2023-07-28T06:40:36;97008.22;;;21.53;75.22
12759;BME280;20944;47.048;15.390;2023-07-28T06:43:04;97045.72;;;21.84;75.57
12759;BME280;20944;47.048;15.390;2023-07-28T06:45:34;97017.81;;;21.88;75.91
12759;BME280;20944;47.048;15.390;2023-07-28T06:48:02;97042.53;;;22.22;75.23
12759;BME280;20944;47.048;15.390;2023-07-28T06:50:31;97035.63;;;22.41;72.94
12759;BME280;20944;47.048;15.390;2023-07-28T06:53:01;97044.06;;;22.57;73.32
12759;BME280;20944;47.048;15.390;2023-07-28T06:55:30;97047.16;;;22.62;71.56
12759;BME280;20944;47.048;15.390;2023-07-28T06:57:58;97041.25;;;22.58;70.60
12759;BME280;20944;47.048;15.390;2023-07-28T07:00:26;97048.88;;;22.63;70.68
12759;BME280;20944;47.048;15.390;2023-07-28T07:02:55;97044.63;;;22.60;71.54
12759;BME280;20944;47.048;15.390;2023-07-28T07:05:23;97017.13;;;22.49;72.84
12759;BME280;20944;47.048;15.390;2023-07-28T07:07:51;97047.53;;;22.78;72.50
12759;BME280;20944;47.048;15.390;2023-07-28T07:10:22;97047.38;;;22.80;70.51
12759;BME280;20944;47.048;15.390;2023-07-28T07:12:50;97039.03;;;22.64;69.92
12759;BME280;20944;47.048;15.390;2023-07-28T07:15:19;97046.59;;;22.58;71.44
12759;BME280;20944;47.048;15.390;2023-07-28T07:17:47;97022.88;;;22.44;71.87
12759;BME280;20944;47.048;15.390;2023-07-28T07:20:15;97029.19;;;22.64;72.82
12759;BME280;20944;47.048;15.390;2023-07-28T07:22:44;97033.28;;;22.89;73.19
12759;BME280;20944;47.048;15.390;2023-07-28T07:25:12;97037.31;;;23.14;72.84
12759;BME280;20944;47.048;15.390;2023-07-28T07:27:42;97038.09;;;23.35;71.42
12759;BME280;20944;47.048;15.390;2023-07-28T07:30:10;97034.31;;;23.48;71.17
12759;BME280;20944;47.048;15.390;2023-07-28T07:32:39;96999.81;;;23.54;70.83
12759;BME280;20944;47.048;15.390;2023-07-28T07:35:08;97019.75;;;23.71;69.03
12759;BME280;20944;47.048;15.390;2023-07-28T07:37:37;97028.19;;;23.86;68.95
12759;BME280;20944;47.048;15.390;2023-07-28T07:40:07;97025.81;;;24.02;66.82
12759;BME280;20944;47.048;15.390;2023-07-28T07:42:45;97024.13;;;24.11;66.33
12759;BME280;20944;47.048;15.390;2023-07-28T07:45:14;97015.94;;;24.12;65.14
12759;BME280;20944;47.048;15.390;2023-07-28T07:47:43;96978.75;;;23.80;64.49
12759;BME280;20944;47.048;15.390;2023-07-28T07:50:11;97033.69;;;24.13;65.67
12759;BME280;20944;47.048;15.390;2023-07-28T07:52:40;97026.09;;;24.28;64.97
12759;BME280;20944;47.048;15.390;2023-07-28T07:55:09;96990.56;;;24.07;63.16
12759;BME280;20944;47.048;15.390;2023-07-28T07:57:39;97006.66;;;24.36;63.50
12759;BME280;20944;47.048;15.390;2023-07-28T08:00:10;97031.56;;;24.65;62.13
12759;BME280;20944;47.048;15.390;2023-07-28T08:02:39;97036.03;;;24.74;63.59
12759;BME280;20944;47.048;15.390;2023-07-28T08:05:12;97014.31;;;24.78;62.39
12759;BME280;20944;47.048;15.390;2023-07-28T08:07:40;97005.38;;;24.87;61.63
12759;BME280;20944;47.048;15.390;2023-07-28T08:10:09;97032.78;;;25.18;61.37
12759;BME280;20944;47.048;15.390;2023-07-28T08:12:37;97029.00;;;25.38;61.52
12759;BME280;20944;47.048;15.390;2023-07-28T08:15:06;97026.97;;;25.50;60.54
12759;BME280;20944;47.048;15.390;2023-07-28T08:17:36;97041.16;;;25.42;58.36
12759;BME280;20944;47.048;15.390;2023-07-28T08:20:06;97034.88;;;25.24;59.80
12759;BME280;20944;47.048;15.390;2023-07-28T08:22:34;97041.41;;;25.21;60.72
12759;BME280;20944;47.048;15.390;2023-07-28T08:25:03;97048.03;;;25.17;62.41
12759;BME280;20944;47.048;15.390;2023-07-28T08:27:32;97020.41;;;25.07;60.61
12759;BME280;20944;47.048;15.390;2023-07-28T08:30:00;97046.25;;;25.36;59.49
12759;BME280;20944;47.048;15.390;2023-07-28T08:32:29;97047.66;;;25.40;56.94
12759;BME280;20944;47.048;15.390;2023-07-28T08:34:58;97044.59;;;25.35;58.21
12759;BME280;20944;47.048;15.390;2023-07-28T08:37:27;97045.47;;;25.25;57.80
12759;BME280;20944;47.048;15.390;2023-07-28T08:39:56;97043.94;;;25.23;59.33
12759;BME280;20944;47.048;15.390;2023-07-28T08:42:25;97051.72;;;25.44;60.57
12759;BME280;20944;47.048;15.390;2023-07-28T08:44:53;97044.19;;;25.29;56.72
12759;BME280;20944;47.048;15.390;2023-07-28T08:47:21;97031.06;;;25.54;56.12
12759;BME280;20944;47.048;15.390;2023-07-28T08:49:51;97038.75;;;25.67;57.06
12759;BME280;20944;47.048;15.390;2023-07-28T08:52:20;97038.41;;;25.70;56.18
12759;BME280;20944;47.048;15.390;2023-07-28T08:54:49;97021.63;;;25.77;57.76
12759;BME280;20944;47.048;15.390;2023-07-28T08:57:17;97010.56;;;25.80;54.75
12759;BME280;20944;47.048;15.390;2023-07-28T08:59:46;97029.81;;;25.94;55.35
12759;BME280;20944;47.048;15.390;2023-07-28T09:02:16;97036.72;;;25.96;53.73
12759;BME280;20944;47.048;15.390;2023-07-28T09:04:46;97030.75;;;25.85;53.83
12759;BME280;20944;47.048;15.390;2023-07-28T09:07:15;97020.91;;;25.75;55.24
12759;BME280;20944;47.048;15.390;2023-07-28T09:09:45;96989.34;;;25.60;54.48
12759;BME280;20944;47.048;15.390;2023-07-28T09:12:14;97024.53;;;25.84;55.44
12759;BME280;20944;47.048;15.390;2023-07-28T09:14:42;96885.06;;;25.11;54.91
12759;BME280;20944;47.048;15.390;2023-07-28T09:17:12;97029.34;;;26.16;54.42
12759;BME280;20944;47.048;15.390;2023-07-28T09:19:51;97005.41;;;26.23;51.26
12759;BME280;20944;47.048;15.390;2023-07-28T09:22:20;97018.09;;;26.39;52.33
12759;BME280;20944;47.048;15.390;2023-07-28T09:24:51;96976.16;;;26.20;47.65
12759;BME280;20944;47.048;15.390;2023-07-28T09:27:21;97018.50;;;26.26;49.10
12759;BME280;20944;47.048;15.390;2023-07-28T09:29:50;97029.03;;;26.37;49.39
12759;BME280;20944;47.048;15.390;2023-07-28T09:32:27;96955.44;;;26.12;51.06
12759;BME280;20944;47.048;15.390;2023-07-28T09:35:08;96991.38;;;26.55;49.97
12759;BME280;20944;47.048;15.390;2023-07-28T09:37:39;97010.63;;;26.68;50.54
12759;BME280;20944;47.048;15.390;2023-07-28T09:40:10;97006.28;;;26.75;50.92
12759;BME280;20944;47.048;15.390;2023-07-28T09:42:39;97002.28;;;26.79;51.31
12759;BME280;20944;47.048;15.390;2023-07-28T09:45:09;96961.50;;;26.58;50.88
12759;BME280;20944;47.048;15.390;2023-07-28T09:47:58;97001.75;;;26.76;52.39
12759;BME280;20944;47.048;15.390;2023-07-28T09:50:32;97001.75;;;26.76;51.52
12759;BME280;20944;47.048;15.390;2023-07-28T09:53:03;96995.75;;;26.82;49.81
12759;BME280;20944;47.048;15.390;2023-07-28T09:55:33;96961.59;;;26.74;50.01
12759;BME280;20944;47.048;15.390;2023-07-28T09:58:04;96992.50;;;27.04;47.42
12759;BME280;20944;47.048;15.390;2023-07-28T10:00:34;96999.47;;;27.15;49.61
12759;BME280;20944;47.048;15.390;2023-07-28T10:03:03;96974.91;;;27.10;48.19
12759;BME280;20944;47.048;15.390;2023-07-28T10:05:33;96959.03;;;26.99;48.36
12759;BME280;20944;47.048;15.390;2023-07-28T10:08:03;96971.38;;;26.83;47.70
12759;BME280;20944;47.048;15.390;2023-07-28T10:10:34;96991.16;;;26.74;47.90
12759;BME280;20944;47.048;15.390;2023-07-28T10:13:02;96990.22;;;26.57;49.91
12759;BME280;20944;47.048;15.390;2023-07-28T10:15:32;96989.91;;;26.60;52.43
12759;BME280;20944;47.048;15.390;2023-07-28T10:18:00;96983.91;;;26.67;49.69
12759;BME280;20944;47.048;15.390;2023-07-28T10:20:31;96983.16;;;26.56;48.71
12759;BME280;20944;47.048;15.390;2023-07-28T10:23:04;96996.97;;;26.61;50.97
12759;BME280;20944;47.048;15.390;2023-07-28T10:25:35;96990.00;;;26.77;50.70
12759;BME280;20944;47.048;15.390;2023-07-28T10:28:05;96987.56;;;26.92;46.54
12759;BME280;20944;47.048;15.390;2023-07-28T10:30:38;96973.63;;;26.96;46.45
12759;BME280;20944;47.048;15.390;2023-07-28T10:33:26;96981.44;;;27.07;48.74
12759;BME280;20944;47.048;15.390;2023-07-28T10:35:55;96976.44;;;27.21;48.33
12759;BME280;20944;47.048;15.390;2023-07-28T10:38:33;96984.88;;;27.26;49.37
12759;BME280;20944;47.048;15.390;2023-07-28T10:41:15;96987.44;;;27.35;48.49
12759;BME280;20944;47.048;15.390;2023-07-28T10:43:45;96940.94;;;27.09;48.29
12759;BME280;20944;47.048;15.390;2023-07-28T10:46:15;96964.69;;;27.22;50.43
12759;BME280;20944;47.048;15.390;2023-07-28T10:48:46;96978.72;;;27.41;49.90
12759;BME280;20944;47.048;15.390;2023-07-28T10:51:20;96975.22;;;27.49;52.09
12759;BME280;20944;47.048;15.390;2023-07-28T10:53:55;96989.09;;;27.87;49.40
12759;BME280;20944;47.048;15.390;2023-07-28T10:56:26;96976.31;;;27.89;50.76
12759;BME280;20944;47.048;15.390;2023-07-28T10:58:58;96982.03;;;28.27;51.23
12759;BME280;20944;47.048;15.390;2023-07-28T11:01:33;96964.72;;;28.05;46.33
12759;BME280;20944;47.048;15.390;2023-07-28T11:04:09;96981.19;;;27.85;46.91
12759;BME280;20944;47.048;15.390;2023-07-28T11:06:41;96980.91;;;27.46;49.73
12759;BME280;20944;47.048;15.390;2023-07-28T11:09:09;96981.75;;;27.47;47.32
12759;BME280;20944;47.048;15.390;2023-07-28T11:11:40;96970.78;;;27.40;48.27
12759;BME280;20944;47.048;15.390;2023-07-28T11:14:15;96972.03;;;27.54;47.76
12759;BME280;20944;47.048;15.390;2023-07-28T11:16:43;96993.22;;;27.57;48.89
12759;BME280;20944;47.048;15.390;2023-07-28T11:19:15;96961.28;;;27.62;50.16
12759;BME280;20944;47.048;15.390;2023-07-28T11:21:45;96952.56;;;27.76;48.03
12759;BME280;20944;47.048;15.390;2023-07-28T11:24:18;96972.44;;;28.08;49.84
12759;BME280;20944;47.048;15.390;2023-07-28T11:26:49;96979.19;;;28.44;49.98
12759;BME280;20944;47.048;15.390;2023-07-28T11:29:18;96976.63;;;28.67;47.47
12759;BME280;20944;47.048;15.390;2023-07-28T11:31:48;96966.53;;;28.61;46.70
12759;BME280;20944;47.048;15.390;2023-07-28T11:34:17;96961.97;;;28.62;46.88
12759;BME280;20944;47.048;15.390;2023-07-28T11:36:46;96966.38;;;28.55;48.84
12759;BME280;20944;47.048;15.390;2023-07-28T11:39:14;96963.19;;;28.18;48.32
12759;BME280;20944;47.048;15.390;2023-07-28T11:41:44;96926.16;;;27.80;51.17
12759;BME280;20944;47.048;15.390;2023-07-28T11:44:16;96965.03;;;27.85;51.24
12759;BME280;20944;47.048;15.390;2023-07-28T11:46:44;96969.56;;;27.68;50.19
12759;BME280;20944;47.048;15.390;2023-07-28T11:49:14;96952.13;;;27.38;51.82
12759;BME280;20944;47.048;15.390;2023-07-28T11:51:44;96972.81;;;27.38;55.61
12759;BME280;20944;47.048;15.390;2023-07-28T11:54:14;96947.56;;;27.23;54.08
12759;BME280;20944;47.048;15.390;2023-07-28T11:56:43;96953.97;;;27.30;56.39
12759;BME280;20944;47.048;15.390;2023-07-28T11:59:16;96959.50;;;27.28;53.86
12759;BME280;20944;47.048;15.390;2023-07-28T12:01:56;96963.91;;;27.37;53.69
12759;BME280;20944;47.048;15.390;2023-07-28T12:04:29;96962.09;;;27.62;53.81
12759;BME280;20944;47.048;15.390;2023-07-28T12:07:05;96959.47;;;27.87;58.32
12759;BME280;20944;47.048;15.390;2023-07-28T12:09:50;96947.19;;;28.17;53.54
12759;BME280;20944;47.048;15.390;2023-07-28T12:12:23;96962.34;;;28.42;51.20
12759;BME280;20944;47.048;15.390;2023-07-28T12:14:54;96952.75;;;28.48;51.02
12759;BME280;20944;47.048;15.390;2023-07-28T12:17:27;96952.19;;;28.69;53.14
12759;BME280;20944;47.048;15.390;2023-07-28T12:20:16;96950.28;;;28.77;51.62
12759;BME280;20944;47.048;15.390;2023-07-28T12:22:45;96939.34;;;28.79;51.76
12759;BME280;20944;47.048;15.390;2023-07-28T12:25:14;96920.06;;;28.90;50.96
12759;BME280;20944;47.048;15.390;2023-07-28T12:27:43;96947.81;;;29.23;50.96
12759;BME280;20944;47.048;15.390;2023-07-28T12:30:12;96945.63;;;29.50;51.20
12759;BME280;20944;47.048;15.390;2023-07-28T12:32:43;96941.97;;;29.74;48.45
12759;BME280;20944;47.048;15.390;2023-07-28T12:35:14;96941.09;;;29.96;48.56
12759;BME280;20944;47.048;15.390;2023-07-28T12:37:43;96937.38;;;30.20;47.27
12759;BME280;20944;47.048;15.390;2023-07-28T12:40:14;96930.44;;;30.41;48.04
12759;BME280;20944;47.048;15.390;2023-07-28T12:42:45;96928.84;;;30.61;47.32
12759;BME280;20944;47.048;15.390;2023-07-28T12:45:18;96929.47;;;30.71;45.42
12759;BME280;20944;47.048;15.390;2023-07-28T12:47:48;96922.75;;;30.82;46.26
12759;BME280;20944;47.048;15.390;2023-07-28T12:50:25;96930.03;;;30.81;42.05
12759;BME280;20944;47.048;15.390;2023-07-28T12:52:53;96934.94;;;30.63;46.09
12759;BME280;20944;47.048;15.390;2023-07-28T12:55:25;96915.16;;;30.62;45.27
12759;BME280;20944;47.048;15.390;2023-07-28T12:57:54;96930.81;;;30.52;48.44
12759;BME280;20944;47.048;15.390;2023-07-28T13:00:24;96935.78;;;30.49;48.42